createdAt,value
2022-11-13T00:02:07.524Z,101243.09
2022-11-13T00:04:28.274Z,101245.78
2022-11-13T00:06:57.784Z,101250.41
2022-11-13T00:09:19.659Z,101251.41
2022-11-13T00:11:40.424Z,101246.09
2022-11-13T00:14:01.646Z,101250.66
2022-11-13T00:16:23.026Z,101248.00
2022-11-13T00:18:44.915Z,101255.13
2022-11-13T00:21:12.049Z,101249.75
2022-11-13T00:23:36.272Z,101243.47
2022-11-13T00:25:57.125Z,101248.91
2022-11-13T00:28:18.268Z,101240.84
2022-11-13T00:30:41.860Z,101245.34
2022-11-13T00:33:02.857Z,101233.63
2022-11-13T00:35:23.140Z,101234.47
2022-11-13T00:37:43.905Z,101230.91
2022-11-13T00:40:05.844Z,101222.81
2022-11-13T00:42:29.146Z,101226.41
2022-11-13T00:44:49.782Z,101230.94
2022-11-13T00:47:10.535Z,101230.09
2022-11-13T00:49:31.521Z,101224.84
2022-11-13T00:51:52.059Z,101224.00
2022-11-13T00:54:13.019Z,101224.94
2022-11-13T00:56:33.494Z,101222.25
2022-11-13T00:58:54.234Z,101225.75
2022-11-13T01:01:17.375Z,101219.47
2022-11-13T01:03:39.400Z,101223.09
2022-11-13T01:06:00.339Z,101218.72
2022-11-13T01:08:20.830Z,101216.00
2022-11-13T01:10:52.977Z,101209.69
2022-11-13T01:13:13.901Z,101211.41
2022-11-13T01:15:34.411Z,101211.50
2022-11-13T01:17:58.265Z,101207.97
2022-11-13T01:20:18.874Z,101200.75
2022-11-13T01:22:39.753Z,101194.59
2022-11-13T01:25:00.797Z,101194.66
2022-11-13T01:27:21.629Z,101196.50
2022-11-13T01:29:42.787Z,101199.09
2022-11-13T01:32:03.787Z,101197.28
2022-11-13T01:34:24.216Z,101191.81
2022-11-13T01:36:44.605Z,101198.13
2022-11-13T01:39:04.793Z,101199.91
2022-11-13T01:41:33.035Z,101195.47
2022-11-13T01:43:54.700Z,101204.41
2022-11-13T01:46:29.613Z,101194.59
2022-11-13T01:49:03.282Z,101198.19
2022-11-13T01:51:56.102Z,101200.03
2022-11-13T01:54:22.044Z,101198.19
2022-11-13T01:56:43.388Z,101199.06
2022-11-13T01:59:14.993Z,101197.44
2022-11-13T02:01:35.582Z,101198.25
2022-11-13T02:03:56.288Z,101191.09
2022-11-13T02:06:17.693Z,101185.69
2022-11-13T02:08:38.834Z,101183.91
2022-11-13T02:10:59.656Z,101201.81
2022-11-13T02:13:21.868Z,101198.28
2022-11-13T02:15:45.576Z,101196.50
2022-11-13T02:18:06.536Z,101193.84
2022-11-13T02:20:44.218Z,101201.06
2022-11-13T02:23:23.539Z,101197.50
2022-11-13T02:25:48.026Z,101198.41
2022-11-13T02:28:08.280Z,101195.72
2022-11-13T02:30:32.302Z,101190.41
2022-11-13T02:32:54.780Z,101187.75
2022-11-13T02:35:24.845Z,101196.75
2022-11-13T02:37:45.367Z,101194.94
2022-11-13T02:41:08.475Z,101191.41
2022-11-13T02:43:28.881Z,101198.53
2022-11-13T02:45:49.583Z,101201.22
2022-11-13T02:48:10.311Z,101200.34
2022-11-13T02:50:31.443Z,101200.34
2022-11-13T02:52:52.557Z,101205.72
2022-11-13T02:55:13.165Z,101205.75
2022-11-13T02:57:34.018Z,101205.78
2022-11-13T02:59:56.860Z,101207.63
2022-11-13T03:02:19.973Z,101207.69
2022-11-13T03:05:10.247Z,101205.00
2022-11-13T03:07:21.176Z,101207.69
2022-11-13T03:09:42.356Z,101212.19
2022-11-13T03:12:03.366Z,101210.44
2022-11-13T03:14:24.149Z,101217.59
2022-11-13T03:16:44.945Z,101214.91
2022-11-13T03:19:06.033Z,101222.09
2022-11-13T03:21:27.226Z,101214.97
2022-11-13T03:23:48.004Z,101212.28
2022-11-13T03:26:11.218Z,101203.34
2022-11-13T03:28:31.931Z,101205.22
2022-11-13T03:30:53.112Z,101208.75
2022-11-13T03:33:13.609Z,101208.78
2022-11-13T03:35:41.838Z,101200.78
2022-11-13T03:38:04.996Z,101199.00
2022-11-13T03:40:25.747Z,101195.47
2022-11-13T03:42:46.750Z,101197.28
2022-11-13T03:45:10.622Z,101204.41
2022-11-13T03:47:31.941Z,101197.25
2022-11-13T03:49:52.621Z,101200.84
2022-11-13T03:52:13.336Z,101195.47
2022-11-13T03:54:34.475Z,101197.28
2022-11-13T03:56:55.200Z,101195.50
2022-11-13T03:59:16.090Z,101186.53
2022-11-13T04:01:36.873Z,101193.72
2022-11-13T04:03:57.665Z,101191.94
2022-11-13T04:06:18.488Z,101191.03
2022-11-13T04:08:39.022Z,101198.22
2022-11-13T04:11:13.432Z,101196.44
2022-11-13T04:13:34.433Z,101200.88
2022-11-13T04:15:54.998Z,101199.03
2022-11-13T04:18:15.203Z,101191.03
2022-11-13T04:20:36.122Z,101194.63
2022-11-13T04:22:57.656Z,101190.19
2022-11-13T04:25:18.537Z,101201.81
2022-11-13T04:27:39.065Z,101200.94
2022-11-13T04:30:00.026Z,101195.56
2022-11-13T04:32:20.828Z,101194.72
2022-11-13T04:34:41.818Z,101186.63
2022-11-13T04:37:02.902Z,101199.16
2022-11-13T04:39:23.778Z,101195.56
2022-11-13T04:45:33.973Z,101183.16
2022-11-13T04:47:54.665Z,101180.50
2022-11-13T04:50:16.628Z,101176.94
2022-11-13T04:52:37.386Z,101163.50
2022-11-13T04:54:58.565Z,101163.50
2022-11-13T04:57:21.156Z,101165.31
2022-11-13T04:59:42.118Z,101154.59
2022-11-13T05:02:03.434Z,101159.94
2022-11-13T05:04:24.262Z,101164.41
2022-11-13T05:06:45.050Z,101162.63
2022-11-13T05:09:05.984Z,101169.75
2022-11-13T05:11:26.860Z,101159.94
2022-11-13T05:13:47.395Z,101162.66
2022-11-13T05:16:12.024Z,101160.88
2022-11-13T05:18:33.535Z,101161.81
2022-11-13T05:20:54.214Z,101154.66
2022-11-13T05:23:15.263Z,101149.28
2022-11-13T05:25:35.996Z,101150.16
2022-11-13T05:27:58.411Z,101156.44
2022-11-13T05:30:18.834Z,101159.06
2022-11-13T05:32:39.490Z,101160.84
2022-11-13T05:35:00.129Z,101156.41
2022-11-13T05:37:20.516Z,101155.53
2022-11-13T05:39:41.237Z,101150.19
2022-11-13T05:42:01.770Z,101151.06
2022-11-13T05:44:24.274Z,101160.00
2022-11-13T05:46:44.707Z,101148.41
2022-11-13T05:49:05.601Z,101157.31
2022-11-13T05:51:32.461Z,101155.56
2022-11-13T05:53:54.399Z,101156.44
2022-11-13T05:56:18.093Z,101157.34
2022-11-13T05:58:39.803Z,101154.66
2022-11-13T06:01:13.430Z,101163.59
2022-11-13T06:03:34.367Z,101164.47
2022-11-13T06:05:55.285Z,101165.38
2022-11-13T06:08:15.258Z,101165.34
2022-11-13T06:10:35.890Z,101159.94
2022-11-13T06:12:56.852Z,101167.06
2022-11-13T06:15:17.807Z,101165.25
2022-11-13T06:17:38.774Z,101168.75
2022-11-13T06:19:59.577Z,101178.53
2022-11-13T06:22:20.451Z,101166.91
2022-11-13T06:24:40.721Z,101169.53
2022-11-13T06:27:01.353Z,101166.81
2022-11-13T06:29:22.209Z,101156.91
2022-11-13T06:31:46.073Z,101162.22
2022-11-13T06:34:06.663Z,101163.00
2022-11-13T06:36:30.081Z,101151.31
2022-11-13T06:38:51.414Z,101151.16
2022-11-13T06:41:14.687Z,101152.91
2022-11-13T06:43:35.125Z,101150.13
2022-11-13T06:45:56.520Z,101149.09
2022-11-13T06:48:17.442Z,101156.13
2022-11-13T06:50:37.892Z,101159.63
2022-11-13T06:52:58.485Z,101155.00
2022-11-13T06:55:19.006Z,101159.44
2022-11-13T06:57:39.942Z,101146.78
2022-11-13T07:00:00.711Z,101151.06
2022-11-13T07:02:21.241Z,101151.00
2022-11-13T07:04:41.415Z,101152.66
2022-11-13T07:07:02.287Z,101149.72
2022-11-13T07:09:25.716Z,101148.66
2022-11-13T07:11:46.312Z,101143.13
2022-11-13T07:14:06.642Z,101148.38
2022-11-13T07:16:38.927Z,101146.44
2022-11-13T07:19:05.725Z,101143.56
2022-11-13T07:21:26.231Z,101139.06
2022-11-13T07:23:49.425Z,101137.31
2022-11-13T07:26:13.420Z,101136.94
2022-11-13T07:28:34.610Z,101142.06
2022-11-13T07:31:02.084Z,101130.31
2022-11-13T07:33:22.977Z,101138.09
2022-11-13T07:35:43.605Z,101140.66
2022-11-13T07:38:04.354Z,101140.47
2022-11-13T07:40:25.582Z,101134.97
2022-11-13T07:42:46.597Z,101128.63
2022-11-13T07:45:07.564Z,101125.69
2022-11-13T07:47:28.509Z,101121.88
2022-11-13T07:49:49.008Z,101111.78
2022-11-13T07:52:12.907Z,101100.06
2022-11-13T07:54:33.964Z,101101.72
2022-11-13T07:56:54.822Z,101109.56
2022-11-13T07:59:15.651Z,101102.06
2022-11-13T08:01:36.345Z,101110.84
2022-11-13T08:03:59.122Z,101107.00
2022-11-13T08:06:19.884Z,101105.00
2022-11-13T08:08:41.174Z,101106.66
2022-11-13T08:11:09.513Z,101100.22
2022-11-13T08:13:30.361Z,101099.97
2022-11-13T08:15:51.080Z,101092.69
2022-11-13T08:18:12.038Z,101097.72
2022-11-13T08:20:33.172Z,101093.16
2022-11-13T08:22:57.461Z,101093.09
2022-11-13T08:25:18.935Z,101092.84
2022-11-13T08:27:39.581Z,101088.16
2022-11-13T08:30:00.392Z,101091.59
2022-11-13T08:32:22.745Z,101090.50
2022-11-13T08:34:43.324Z,101096.69
2022-11-13T08:37:04.227Z,101095.50
2022-11-13T08:39:25.240Z,101088.97
2022-11-13T08:41:45.912Z,101097.88
2022-11-13T08:44:06.543Z,101094.06
2022-11-13T08:46:27.495Z,101097.53
2022-11-13T08:48:48.479Z,101097.22
2022-11-13T08:51:09.213Z,101096.38
2022-11-13T08:53:29.902Z,101084.56
2022-11-13T08:55:50.997Z,101088.06
2022-11-13T08:58:11.900Z,101091.38
2022-11-13T09:00:33.610Z,101086.72
2022-11-13T09:02:55.773Z,101097.44
2022-11-13T09:05:16.402Z,101093.78
2022-11-13T09:07:37.150Z,101087.44
2022-11-13T09:09:57.357Z,101086.25
2022-11-13T09:12:18.328Z,101087.97
2022-11-13T09:14:39.541Z,101082.34
2022-11-13T09:17:00.436Z,101077.78
2022-11-13T09:19:21.162Z,101080.25
2022-11-13T09:21:42.304Z,101075.44
2022-11-13T09:24:02.936Z,101074.31
2022-11-13T09:26:24.065Z,101066.81
2022-11-13T09:28:45.046Z,101068.44
2022-11-13T09:31:06.718Z,101067.13
2022-11-13T09:33:27.371Z,101065.78
2022-11-13T09:35:48.236Z,101067.22
2022-11-13T09:38:14.541Z,101070.66
2022-11-13T09:40:41.923Z,101063.13
2022-11-13T09:43:06.633Z,101060.03
2022-11-13T09:45:27.660Z,101055.31
2022-11-13T09:47:52.207Z,101051.38
2022-11-13T09:50:22.367Z,101044.78
2022-11-13T09:52:45.125Z,101047.19
2022-11-13T09:55:06.495Z,101047.81
2022-11-13T09:57:40.599Z,101043.09
2022-11-13T10:00:13.805Z,101036.56
2022-11-13T10:03:11.614Z,101037.16
2022-11-13T10:05:50.250Z,101034.19
2022-11-13T10:08:28.642Z,101032.13
2022-11-13T10:10:55.547Z,101023.81
2022-11-13T10:13:21.992Z,101025.41
2022-11-13T10:15:44.747Z,101028.84
2022-11-13T10:18:26.278Z,101018.69
2022-11-13T10:21:08.316Z,101008.44
2022-11-13T10:23:37.646Z,100999.19
2022-11-13T10:26:22.244Z,100994.22
2022-11-13T10:28:50.702Z,100993.03
2022-11-13T10:31:13.138Z,100993.66
2022-11-13T10:33:33.902Z,100986.31
2022-11-13T10:36:31.248Z,100985.53
2022-11-13T10:39:04.979Z,100986.13
2022-11-13T10:41:25.323Z,100976.81
2022-11-13T10:43:55.130Z,100972.34
2022-11-13T10:46:25.756Z,100972.16
2022-11-13T10:48:46.726Z,100976.28
2022-11-13T10:51:21.909Z,100965.38
2022-11-13T10:53:43.228Z,100967.81
2022-11-13T10:56:13.933Z,100966.06
2022-11-13T10:58:34.696Z,100965.56
2022-11-13T11:00:55.466Z,100965.50
2022-11-13T11:03:27.232Z,100958.28
2022-11-13T11:05:55.695Z,100962.56
2022-11-13T11:08:17.976Z,100957.00
2022-11-13T11:11:02.729Z,100956.09
2022-11-13T11:13:24.566Z,100951.50
2022-11-13T11:15:59.677Z,100947.06
2022-11-13T11:18:53.534Z,100941.38
2022-11-13T11:21:24.013Z,100947.59
2022-11-13T11:24:14.605Z,100942.09
2022-11-13T11:26:42.300Z,100942.59
2022-11-13T11:29:13.023Z,100928.94
2022-11-13T11:31:59.845Z,100933.28
2022-11-13T11:34:29.137Z,100927.78
2022-11-13T11:37:03.465Z,100918.72
2022-11-13T11:39:54.503Z,100922.41
2022-11-13T11:42:34.109Z,100920.19
2022-11-13T11:45:02.325Z,100913.00
2022-11-13T11:47:22.791Z,100915.56
2022-11-13T11:49:44.644Z,100913.72
2022-11-13T11:52:26.190Z,100908.44
2022-11-13T11:55:20.297Z,100910.28
2022-11-13T11:58:00.095Z,100910.19
2022-11-13T12:00:20.925Z,100904.53
2022-11-13T12:02:47.264Z,100903.66
2022-11-13T12:05:29.915Z,100895.06
2022-11-13T12:08:04.876Z,100898.53
2022-11-13T12:10:46.808Z,100889.41
2022-11-13T12:13:39.202Z,100886.63
2022-11-13T12:16:35.325Z,100885.66
2022-11-13T12:19:31.733Z,100883.97
2022-11-13T12:22:18.623Z,100863.09
2022-11-13T12:24:54.274Z,100871.72
2022-11-13T12:27:20.542Z,100868.91
2022-11-13T12:29:57.407Z,100869.78
2022-11-13T12:32:39.259Z,100863.19
2022-11-13T12:35:08.271Z,100859.50
2022-11-13T12:38:01.832Z,100857.09
2022-11-13T12:40:29.432Z,100859.13
2022-11-13T12:42:57.152Z,100859.13
2022-11-13T12:45:46.021Z,100850.03
2022-11-13T12:48:19.102Z,100852.69
2022-11-13T12:50:40.494Z,100860.94
2022-11-13T12:53:07.142Z,100854.59
2022-11-13T12:55:31.114Z,100862.78
2022-11-13T12:57:51.503Z,100863.91
2022-11-13T13:00:29.463Z,100852.22
2022-11-13T13:03:08.063Z,100855.81
2022-11-13T13:05:38.047Z,100860.53
2022-11-13T13:08:10.815Z,100862.59
2022-11-13T13:10:34.938Z,100853.72
2022-11-13T13:13:01.795Z,100853.59
2022-11-13T13:15:28.194Z,100852.75
2022-11-13T13:17:48.778Z,100852.03
2022-11-13T13:20:15.886Z,100846.44
2022-11-13T13:22:36.678Z,100840.03
2022-11-13T13:25:30.959Z,100840.63
2022-11-13T13:28:12.091Z,100841.44
2022-11-13T13:30:47.791Z,100841.38
2022-11-13T13:33:20.464Z,100837.22
2022-11-13T13:36:24.892Z,100825.50
2022-11-13T13:38:57.834Z,100823.88
2022-11-13T13:42:00.768Z,100823.13
2022-11-13T13:44:29.975Z,100825.25
2022-11-13T13:46:51.263Z,100821.63
2022-11-13T13:49:16.826Z,100817.38
2022-11-13T13:51:42.922Z,100820.19
2022-11-13T13:54:08.088Z,100815.81
2022-11-13T13:56:28.739Z,100814.88
2022-11-13T13:58:50.051Z,100824.13
2022-11-13T14:01:25.774Z,100817.88
2022-11-13T14:03:46.359Z,100819.72
2022-11-13T14:06:22.811Z,100812.94
2022-11-13T14:08:43.200Z,100819.25
2022-11-13T14:11:20.889Z,100816.72
2022-11-13T14:13:42.194Z,100820.59
2022-11-13T14:16:04.866Z,100811.88
2022-11-13T14:18:27.513Z,100811.97
2022-11-13T14:20:58.400Z,100807.78
2022-11-13T14:23:24.354Z,100810.56
2022-11-13T14:25:46.431Z,100804.25
2022-11-13T14:28:15.002Z,100805.31
2022-11-13T14:30:35.615Z,100793.75
2022-11-13T14:32:56.496Z,100803.75
2022-11-13T14:35:22.669Z,100801.63
2022-11-13T14:37:46.243Z,100798.16
2022-11-13T14:40:28.361Z,100794.88
2022-11-13T14:42:53.464Z,100796.59
2022-11-13T14:45:21.982Z,100787.75
2022-11-13T14:47:42.921Z,100786.94
2022-11-13T14:50:34.427Z,100785.31
2022-11-13T14:53:02.494Z,100779.25
2022-11-13T14:55:28.351Z,100777.75
2022-11-13T14:57:53.617Z,100780.31
2022-11-13T15:00:19.682Z,100782.25
2022-11-13T15:02:40.201Z,100782.63
2022-11-13T15:05:00.856Z,100789.19
2022-11-13T15:07:29.144Z,100786.91
2022-11-13T15:09:50.506Z,100788.81
2022-11-13T15:12:13.910Z,100786.31
2022-11-13T15:14:34.776Z,100778.19
2022-11-13T15:16:55.520Z,100786.44
2022-11-13T15:19:22.697Z,100787.84
2022-11-13T15:21:51.134Z,100790.84
2022-11-13T15:24:25.190Z,100794.84
2022-11-13T15:26:46.052Z,100784.31
2022-11-13T15:29:07.199Z,100783.34
2022-11-13T15:31:43.082Z,100784.22
2022-11-13T15:34:05.358Z,100787.88
2022-11-13T15:36:26.617Z,100786.06
2022-11-13T15:38:47.557Z,100784.22
2022-11-13T15:41:14.004Z,100780.22
2022-11-13T15:43:35.440Z,100786.34
2022-11-13T15:45:56.507Z,100789.19
2022-11-13T15:48:17.918Z,100791.94
2022-11-13T15:50:39.223Z,100789.13
2022-11-13T15:53:05.007Z,100786.53
2022-11-13T15:55:29.744Z,100789.59
2022-11-13T15:57:50.785Z,100797.19
2022-11-13T16:00:16.562Z,100792.03
2022-11-13T16:02:37.357Z,100800.34
2022-11-13T16:04:58.403Z,100809.41
2022-11-13T16:07:27.425Z,100811.78
2022-11-13T16:09:48.708Z,100803.88
2022-11-13T16:12:11.507Z,100811.41
2022-11-13T16:14:31.848Z,100813.59
2022-11-13T16:16:53.457Z,100808.00
2022-11-13T16:19:19.602Z,100809.81
2022-11-13T16:21:40.126Z,100809.81
2022-11-13T16:24:00.612Z,100814.34
2022-11-13T16:27:23.977Z,100811.16
2022-11-13T16:29:44.877Z,100817.47
2022-11-13T16:32:05.339Z,100820.00
2022-11-13T16:34:26.257Z,100822.00
2022-11-13T16:36:46.999Z,100810.34
2022-11-13T16:39:14.667Z,100812.22
2022-11-13T16:41:35.033Z,100810.31
2022-11-13T16:43:58.062Z,100810.34
2022-11-13T16:46:32.258Z,100816.06
2022-11-13T16:48:53.330Z,100815.94
2022-11-13T16:51:14.855Z,100811.53
2022-11-13T16:53:35.152Z,100812.44
2022-11-13T16:55:55.628Z,100810.72
2022-11-13T16:58:15.923Z,100805.50
2022-11-13T17:00:36.213Z,100805.75
2022-11-13T17:02:56.580Z,100807.66
2022-11-13T17:05:17.598Z,100805.13
2022-11-13T17:07:38.145Z,100809.88
2022-11-13T17:10:24.289Z,100798.41
2022-11-13T17:12:39.863Z,100805.78
2022-11-13T17:15:00.984Z,100801.41
2022-11-13T17:17:21.708Z,100793.53
2022-11-13T17:19:44.327Z,100796.34
2022-11-13T17:22:04.986Z,100795.75
2022-11-13T17:24:25.942Z,100788.72
2022-11-13T17:26:46.590Z,100782.63
2022-11-13T17:29:07.517Z,100795.34
2022-11-13T17:31:28.451Z,100786.50
2022-11-13T17:33:53.166Z,100786.72
2022-11-13T17:36:14.140Z,100792.25
2022-11-13T17:38:35.521Z,100796.00
2022-11-13T17:40:55.893Z,100791.59
2022-11-13T17:43:16.823Z,100781.78
2022-11-13T17:45:38.155Z,100782.88
2022-11-13T17:47:58.982Z,100779.38
2022-11-13T17:50:19.860Z,100778.63
2022-11-13T17:52:40.262Z,100779.72
2022-11-13T17:55:01.995Z,100776.28
2022-11-13T17:57:26.723Z,100770.09
2022-11-13T17:59:48.043Z,100768.41
2022-11-13T18:02:11.806Z,100778.50
2022-11-13T18:04:32.720Z,100778.50
2022-11-13T18:06:53.591Z,100780.38
2022-11-13T18:09:14.327Z,100778.63
2022-11-13T18:11:59.808Z,100771.84
2022-11-13T18:14:20.402Z,100778.03
2022-11-13T18:16:41.403Z,100774.53
2022-11-13T18:19:03.885Z,100773.75
2022-11-13T18:21:27.976Z,100767.59
2022-11-13T18:23:49.264Z,100772.06
2022-11-13T18:26:20.205Z,100775.84
2022-11-13T18:28:41.484Z,100769.66
2022-11-13T18:31:10.032Z,100774.38
2022-11-13T18:33:32.660Z,100769.19
2022-11-13T18:35:55.872Z,100764.81
2022-11-13T18:38:16.121Z,100759.41
2022-11-13T18:40:38.183Z,100764.00
2022-11-13T18:42:58.680Z,100761.34
2022-11-13T18:45:19.541Z,100766.88
2022-11-13T18:47:40.355Z,100762.44
2022-11-13T18:50:01.014Z,100766.97
2022-11-13T18:52:21.103Z,100767.00
2022-11-13T18:54:43.346Z,100776.13
2022-11-13T18:57:04.082Z,100778.94
2022-11-13T18:59:24.883Z,100775.47
2022-11-13T19:01:45.926Z,100780.91
2022-11-13T19:04:25.392Z,100774.69
2022-11-13T19:06:46.330Z,100774.81
2022-11-13T19:09:11.091Z,100778.56
2022-11-13T19:11:32.689Z,100780.34
2022-11-13T19:13:53.701Z,100784.84
2022-11-13T19:16:20.124Z,100783.09
2022-11-13T19:18:43.076Z,100779.59
2022-11-13T19:21:09.899Z,100780.53
2022-11-13T19:23:30.569Z,100775.25
2022-11-13T19:25:51.217Z,100777.19
2022-11-13T19:28:11.826Z,100789.75
2022-11-13T19:30:32.599Z,100769.22
2022-11-13T19:32:53.070Z,100779.19
2022-11-13T19:35:13.981Z,100782.03
2022-11-13T19:41:22.556Z,100776.84
2022-11-13T19:43:45.049Z,100788.56
2022-11-13T19:46:07.469Z,100787.66
2022-11-13T19:48:28.283Z,100780.53
2022-11-13T19:50:49.110Z,100785.03
2022-11-13T19:53:10.216Z,100778.81
2022-11-13T19:55:35.115Z,100774.41
2022-11-13T19:57:56.144Z,100776.50
2022-11-13T20:00:17.832Z,100771.97
2022-11-13T20:02:38.131Z,100763.00
2022-11-13T20:04:58.502Z,100765.69
2022-11-13T20:07:19.520Z,100751.50
2022-11-13T20:09:40.604Z,100753.53
2022-11-13T20:12:01.046Z,100757.25
2022-11-13T20:14:21.437Z,100756.38
2022-11-13T20:16:42.284Z,100752.00
2022-11-13T20:19:02.850Z,100750.19
2022-11-13T20:21:24.707Z,100752.16
2022-11-13T20:23:45.766Z,100752.25
2022-11-13T20:26:11.394Z,100754.03
2022-11-13T20:28:32.636Z,100756.72
2022-11-13T20:31:05.992Z,100756.66
2022-11-13T20:33:26.997Z,100754.78
2022-11-13T20:36:50.422Z,100754.97
2022-11-13T20:39:12.075Z,100753.91
2022-11-13T20:41:59.746Z,100750.41
2022-11-13T20:44:20.958Z,100744.88
2022-11-13T20:54:36.907Z,100734.19
2022-11-13T20:56:57.381Z,100744.06
2022-11-13T20:59:18.245Z,100744.06
2022-11-13T21:01:38.581Z,100742.38
2022-11-13T21:03:59.772Z,100747.88
2022-11-13T21:06:22.362Z,100742.56
2022-11-13T21:08:43.989Z,100746.88
2022-11-13T21:11:06.366Z,100740.47
2022-11-13T21:13:28.219Z,100742.13
2022-11-13T21:15:48.564Z,100745.63
2022-11-13T21:18:10.199Z,100748.22
2022-11-13T21:20:32.707Z,100744.66
2022-11-13T21:22:57.475Z,100750.09
2022-11-13T21:25:19.778Z,100747.25
2022-11-13T21:27:40.286Z,100751.84
2022-11-13T21:30:01.013Z,100750.09
2022-11-13T21:32:21.712Z,100752.88
2022-11-13T21:34:42.050Z,100746.56
2022-11-13T21:37:02.687Z,100749.31
2022-11-13T21:39:23.609Z,100750.28
2022-11-13T21:41:44.546Z,100751.19
2022-11-13T21:44:08.510Z,100753.03
2022-11-13T21:46:31.730Z,100759.44
2022-11-13T21:49:01.325Z,100751.50
2022-11-13T21:51:21.718Z,100761.31
2022-11-13T21:53:43.309Z,100765.75
2022-11-13T21:56:04.094Z,100761.38
2022-11-13T21:58:36.918Z,100774.91
2022-11-13T22:00:58.845Z,100775.69
2022-11-13T22:03:19.485Z,100772.06
2022-11-13T22:05:40.537Z,100770.34
2022-11-13T22:08:01.950Z,100766.75
2022-11-13T22:10:22.349Z,100767.63
2022-11-13T22:12:45.339Z,100758.84
2022-11-13T22:15:06.623Z,100771.47
2022-11-13T22:17:28.981Z,100767.16
2022-11-13T22:19:49.455Z,100765.38
2022-11-13T22:22:12.506Z,100769.06
2022-11-13T22:24:34.044Z,100762.81
2022-11-13T22:26:54.787Z,100763.69
2022-11-13T22:29:15.622Z,100763.69
2022-11-13T22:31:37.201Z,100758.31
2022-11-13T22:33:58.220Z,100752.00
2022-11-13T22:36:21.980Z,100749.44
2022-11-13T22:38:44.672Z,100749.66
2022-11-13T22:41:22.624Z,100746.13
2022-11-13T22:43:46.053Z,100744.25
2022-11-13T22:46:10.419Z,100744.28
2022-11-13T22:48:53.583Z,100741.63
2022-11-13T22:51:19.226Z,100739.88
2022-11-13T22:53:40.541Z,100748.13
2022-11-13T22:56:08.335Z,100740.97
2022-11-13T22:58:32.697Z,100727.53
2022-11-13T23:00:53.174Z,100729.25
2022-11-13T23:03:14.045Z,100740.84
2022-11-13T23:05:37.704Z,100734.69
2022-11-13T23:07:58.454Z,100732.97
2022-11-13T23:10:18.931Z,100733.94
2022-11-13T23:12:39.486Z,100728.59
2022-11-13T23:15:00.775Z,100726.84
2022-11-13T23:17:21.970Z,100719.66
2022-11-13T23:19:45.476Z,100719.66
2022-11-13T23:22:05.796Z,100719.59
2022-11-13T23:24:26.817Z,100726.69
2022-11-13T23:26:47.273Z,100726.72
2022-11-13T23:29:07.743Z,100716.91
2022-11-13T23:31:28.037Z,100712.41
2022-11-13T23:33:52.239Z,100706.25
2022-11-13T23:36:14.777Z,100708.09
2022-11-13T23:38:35.552Z,100710.00
2022-11-13T23:40:58.198Z,100706.34
2022-11-13T23:43:18.884Z,100704.50
2022-11-13T23:45:39.798Z,100700.06
2022-11-13T23:48:00.868Z,100714.41
2022-11-13T23:50:22.200Z,100701.75
2022-11-13T23:52:42.848Z,100701.13
2022-11-13T23:55:04.132Z,100698.31
2022-11-13T23:57:24.482Z,100690.19
2022-11-13T23:59:45.173Z,100681.41
